createdAt,value
2018-09-14T00:00:52.964Z,13.28
2018-09-14T00:03:22.308Z,13.24
2018-09-14T00:05:50.983Z,13.18
2018-09-14T00:08:20.490Z,13.12
2018-09-14T00:10:50.826Z,13.08
2018-09-14T00:13:19.582Z,13.13
2018-09-14T00:15:48.207Z,13.11
2018-09-14T00:18:16.850Z,13.08
2018-09-14T00:20:45.458Z,13.10
2018-09-14T00:23:14.217Z,13.08
2018-09-14T00:25:43.401Z,13.09
2018-09-14T00:28:12.068Z,13.09
2018-09-14T00:30:42.052Z,13.02
2018-09-14T00:33:11.540Z,13.03
2018-09-14T00:35:40.419Z,13.02
2018-09-14T00:38:09.045Z,13.00
2018-09-14T00:40:37.790Z,12.97
2018-09-14T00:43:06.772Z,12.90
2018-09-14T00:45:36.002Z,12.95
2018-09-14T00:48:04.850Z,12.95
2018-09-14T00:50:33.871Z,12.94
2018-09-14T00:53:02.802Z,12.95
2018-09-14T00:55:31.467Z,12.95
2018-09-14T00:58:02.401Z,12.97
2018-09-14T01:00:31.090Z,12.93
2018-09-14T01:03:00.665Z,12.93
2018-09-14T01:05:29.499Z,12.90
2018-09-14T01:07:58.158Z,12.90
2018-09-14T01:10:26.786Z,12.86
2018-09-14T01:12:56.337Z,12.85
2018-09-14T01:15:25.031Z,12.84
2018-09-14T01:17:53.804Z,12.83
2018-09-14T01:20:22.790Z,12.81
2018-09-14T01:22:51.883Z,12.71
2018-09-14T01:25:21.601Z,12.73
2018-09-14T01:27:50.328Z,12.73
2018-09-14T01:30:20.032Z,12.69
2018-09-14T01:32:48.716Z,12.64
2018-09-14T01:35:22.472Z,12.60
2018-09-14T01:37:53.140Z,12.57
2018-09-14T01:40:21.793Z,12.58
2018-09-14T01:42:50.404Z,12.58
2018-09-14T01:45:19.045Z,12.49
2018-09-14T01:47:47.577Z,12.47
2018-09-14T01:50:16.202Z,12.43
2018-09-14T01:52:44.813Z,12.44
2018-09-14T01:55:13.434Z,12.47
2018-09-14T01:57:42.113Z,12.44
2018-09-14T02:00:10.831Z,12.44
2018-09-14T02:02:39.494Z,12.44
2018-09-14T02:05:08.167Z,12.39
2018-09-14T02:07:37.610Z,12.32
2018-09-14T02:10:06.970Z,12.32
2018-09-14T02:12:35.637Z,12.27
2018-09-14T02:15:04.287Z,12.30
2018-09-14T02:17:32.964Z,12.28
2018-09-14T02:20:01.874Z,12.24
2018-09-14T02:22:30.566Z,12.25
2018-09-14T02:25:00.654Z,12.24
2018-09-14T02:27:29.482Z,12.22
2018-09-14T02:29:58.182Z,12.18
2018-09-14T02:32:27.045Z,12.18
2018-09-14T02:34:56.036Z,12.15
2018-09-14T02:37:24.798Z,12.20
2018-09-14T02:39:53.397Z,12.14
2018-09-14T02:42:22.489Z,12.15
2018-09-14T02:44:52.242Z,12.15
2018-09-14T02:47:20.848Z,12.14
2018-09-14T02:49:49.516Z,12.16
2018-09-14T02:52:18.783Z,12.16
2018-09-14T02:54:47.536Z,12.15
2018-09-14T02:57:16.526Z,12.18
2018-09-14T02:59:47.555Z,12.18
2018-09-14T03:02:16.198Z,12.19
2018-09-14T03:04:45.451Z,12.15
2018-09-14T03:07:14.987Z,12.16
2018-09-14T03:09:45.068Z,12.14
2018-09-14T03:12:13.692Z,12.18
2018-09-14T03:14:42.826Z,12.15
2018-09-14T03:17:11.451Z,12.09
2018-09-14T03:19:40.019Z,12.05
2018-09-14T03:22:08.869Z,12.06
2018-09-14T03:24:37.509Z,12.04
2018-09-14T03:27:06.842Z,12.04
2018-09-14T03:29:35.527Z,12.05
2018-09-14T03:32:05.379Z,12.07
2018-09-14T03:34:33.992Z,12.07
2018-09-14T03:37:02.675Z,12.06
2018-09-14T03:39:31.417Z,12.08
2018-09-14T03:42:00.026Z,12.05
2018-09-14T03:44:28.757Z,12.04
2018-09-14T03:46:57.272Z,11.99
2018-09-14T03:49:25.847Z,11.98
2018-09-14T03:51:54.491Z,11.97
2018-09-14T03:54:23.059Z,11.98
2018-09-14T03:56:51.808Z,11.97
2018-09-14T03:59:20.367Z,11.91
2018-09-14T04:01:48.974Z,11.87
2018-09-14T04:04:17.497Z,11.89
2018-09-14T04:06:46.134Z,11.89
2018-09-14T04:09:15.896Z,11.96
2018-09-14T04:11:45.651Z,11.95
2018-09-14T04:14:14.291Z,11.95
2018-09-14T04:16:43.841Z,11.98
2018-09-14T04:19:13.349Z,11.95
2018-09-14T04:21:41.937Z,11.95
2018-09-14T04:24:11.573Z,11.89
2018-09-14T04:26:40.184Z,11.84
2018-09-14T04:29:11.189Z,11.81
2018-09-14T04:31:39.806Z,11.83
2018-09-14T04:34:08.461Z,11.84
2018-09-14T04:36:38.756Z,11.78
2018-09-14T04:39:09.398Z,11.76
2018-09-14T04:41:39.666Z,11.73
2018-09-14T04:44:09.070Z,11.67
2018-09-14T04:46:37.778Z,11.64
2018-09-14T04:49:06.485Z,11.60
2018-09-14T04:51:35.648Z,11.60
2018-09-14T04:54:04.361Z,11.58
2018-09-14T04:56:32.968Z,11.53
2018-09-14T04:59:01.902Z,11.50
2018-09-14T05:01:30.972Z,11.39
2018-09-14T05:04:00.527Z,11.32
2018-09-14T05:06:29.851Z,11.27
2018-09-14T05:08:59.582Z,11.31
2018-09-14T05:11:29.007Z,11.23
2018-09-14T05:13:57.827Z,11.23
2018-09-14T05:16:26.765Z,11.26
2018-09-14T05:18:56.350Z,11.29
2018-09-14T05:21:25.272Z,11.33
2018-09-14T05:23:54.337Z,11.40
2018-09-14T05:26:24.045Z,11.39
2018-09-14T05:28:52.690Z,11.35
2018-09-14T05:31:21.304Z,11.37
2018-09-14T05:33:49.928Z,11.33
2018-09-14T05:36:18.578Z,11.31
2018-09-14T05:38:47.398Z,11.36
2018-09-14T05:41:16.122Z,11.41
2018-09-14T05:43:44.735Z,11.36
2018-09-14T05:46:14.732Z,11.37
2018-09-14T05:48:43.459Z,11.38
2018-09-14T05:51:13.287Z,11.34
2018-09-14T05:53:42.581Z,11.33
2018-09-14T05:56:11.486Z,11.37
2018-09-14T05:58:40.313Z,11.40
2018-09-14T06:01:09.134Z,11.39
2018-09-14T06:03:38.831Z,11.39
2018-09-14T06:06:07.632Z,11.42
2018-09-14T06:08:36.607Z,11.46
2018-09-14T06:11:05.796Z,11.49
2018-09-14T06:13:35.193Z,11.53
2018-09-14T06:16:06.236Z,11.64
2018-09-14T06:18:35.044Z,11.76
2018-09-14T06:21:05.205Z,11.84
2018-09-14T06:23:34.595Z,11.95
2018-09-14T06:26:03.977Z,12.04
2018-09-14T06:28:33.128Z,12.12
2018-09-14T06:31:02.772Z,12.11
2018-09-14T06:33:32.271Z,12.10
2018-09-14T06:36:02.755Z,12.10
2018-09-14T06:38:31.580Z,12.18
2018-09-14T06:41:00.298Z,12.23
2018-09-14T06:43:28.916Z,12.31
2018-09-14T06:45:57.480Z,12.35
2018-09-14T06:48:26.488Z,12.32
2018-09-14T06:50:55.074Z,12.39
2018-09-14T06:53:23.964Z,12.46
2018-09-14T06:55:52.754Z,12.50
2018-09-14T06:58:21.271Z,12.56
2018-09-14T07:00:50.013Z,12.61
2018-09-14T07:03:18.588Z,12.63
2018-09-14T07:05:47.743Z,12.62
2018-09-14T07:08:16.286Z,12.63
2018-09-14T07:10:44.888Z,12.74
2018-09-14T07:13:13.495Z,12.81
2018-09-14T07:15:42.072Z,12.84
2018-09-14T07:18:10.686Z,12.84
2018-09-14T07:20:39.652Z,12.91
2018-09-14T07:23:09.110Z,12.92
2018-09-14T07:25:38.435Z,13.01
2018-09-14T07:28:07.034Z,12.99
2018-09-14T07:30:35.850Z,13.07
2018-09-14T07:33:04.613Z,13.15
2018-09-14T07:35:34.021Z,13.25
2018-09-14T07:38:02.924Z,13.29
2018-09-14T07:40:31.519Z,13.35
2018-09-14T07:43:01.838Z,13.38
2018-09-14T07:45:30.508Z,13.45
2018-09-14T07:47:59.164Z,13.53
2018-09-14T07:50:28.894Z,13.58
2018-09-14T07:52:58.014Z,13.65
2018-09-14T07:55:26.670Z,13.63
2018-09-14T07:57:56.004Z,13.68
2018-09-14T08:00:26.372Z,13.78
2018-09-14T08:02:54.947Z,13.84
2018-09-14T08:05:24.359Z,13.90
2018-09-14T08:07:53.083Z,13.98
2018-09-14T08:10:21.725Z,14.03
2018-09-14T08:12:50.400Z,14.06
2018-09-14T08:15:19.101Z,14.17
2018-09-14T08:17:47.872Z,14.24
2018-09-14T08:20:16.773Z,14.28
2018-09-14T08:22:45.576Z,14.31
2018-09-14T08:25:14.623Z,14.37
2018-09-14T08:27:43.254Z,14.49
2018-09-14T08:30:11.890Z,14.55
2018-09-14T08:32:41.305Z,14.63
2018-09-14T08:35:10.988Z,14.67
2018-09-14T08:37:39.729Z,14.74
2018-09-14T08:40:08.399Z,14.81
2018-09-14T08:42:37.037Z,14.88
2018-09-14T08:45:05.734Z,14.94
2018-09-14T08:47:36.162Z,14.98
2018-09-14T08:50:05.258Z,15.06
2018-09-14T08:52:34.327Z,15.14
2018-09-14T08:55:10.331Z,15.23
2018-09-14T08:57:39.698Z,15.32
2018-09-14T09:00:08.406Z,15.41
2018-09-14T09:02:36.982Z,15.46
2018-09-14T09:05:05.807Z,15.55
2018-09-14T09:07:34.435Z,15.61
2018-09-14T09:10:03.428Z,15.70
2018-09-14T09:12:32.206Z,15.77
2018-09-14T09:15:01.214Z,15.82
2018-09-14T09:17:29.915Z,15.90
2018-09-14T09:19:58.848Z,15.96
2018-09-14T09:22:27.384Z,16.01
2018-09-14T09:24:56.011Z,16.03
2018-09-14T09:27:24.748Z,16.08
2018-09-14T09:29:53.379Z,16.13
2018-09-14T09:32:22.030Z,16.18
2018-09-14T09:34:50.696Z,16.24
2018-09-14T09:37:19.344Z,16.29
2018-09-14T09:39:48.039Z,16.37
2018-09-14T09:42:16.812Z,16.45
2018-09-14T09:44:45.919Z,16.53
2018-09-14T09:47:15.545Z,16.64
2018-09-14T09:49:44.375Z,16.76
2018-09-14T09:52:13.225Z,16.87
2018-09-14T09:54:41.842Z,16.96
2018-09-14T09:57:10.438Z,17.07
2018-09-14T09:59:40.033Z,17.17
2018-09-14T10:02:13.867Z,17.22
2018-09-14T10:04:47.874Z,17.21
2018-09-14T10:07:16.396Z,17.29
2018-09-14T10:09:45.319Z,17.34
2018-09-14T10:12:14.367Z,17.44
2018-09-14T10:14:42.973Z,17.53
2018-09-14T10:17:11.742Z,17.60
2018-09-14T10:19:41.158Z,17.68
2018-09-14T10:22:11.207Z,17.75
2018-09-14T10:24:40.016Z,17.77
2018-09-14T10:27:08.744Z,17.83
2018-09-14T10:29:37.345Z,17.94
2018-09-14T10:32:06.051Z,17.98
2018-09-14T10:34:35.293Z,18.05
2018-09-14T10:37:05.331Z,18.14
2018-09-14T10:39:34.532Z,18.17
2018-09-14T10:42:04.810Z,18.23
2018-09-14T10:44:33.824Z,18.23
2018-09-14T10:47:04.916Z,18.22
2018-09-14T10:49:33.971Z,18.22
2018-09-14T10:52:04.610Z,18.29
2018-09-14T10:54:34.972Z,18.33
2018-09-14T10:57:05.235Z,18.42
2018-09-14T10:59:34.351Z,18.48
2018-09-14T11:02:05.030Z,18.52
2018-09-14T11:04:34.218Z,18.63
2018-09-14T11:07:04.613Z,18.74
2018-09-14T11:09:33.402Z,18.70
2018-09-14T11:12:03.235Z,18.70
2018-09-14T11:14:32.574Z,18.79
2018-09-14T11:17:01.769Z,18.88
2018-09-14T11:19:30.628Z,18.99
2018-09-14T11:21:59.571Z,19.06
2018-09-14T11:24:28.816Z,19.09
2018-09-14T11:26:58.498Z,19.21
2018-09-14T11:29:27.183Z,19.36
2018-09-14T11:31:55.832Z,19.49
2018-09-14T11:34:24.694Z,19.58
2018-09-14T11:36:53.671Z,19.72
2018-09-14T11:39:23.685Z,19.87
2018-09-14T11:41:52.648Z,20.03
2018-09-14T11:44:22.272Z,20.17
2018-09-14T11:46:51.351Z,20.34
2018-09-14T11:49:20.348Z,20.45
2018-09-14T11:51:50.735Z,20.64
2018-09-14T11:54:19.908Z,20.69
2018-09-14T11:56:48.486Z,20.64
2018-09-14T11:59:17.387Z,20.77
2018-09-14T12:01:46.038Z,20.87
2018-09-14T12:04:14.864Z,20.94
2018-09-14T12:06:43.530Z,21.05
2018-09-14T12:09:13.052Z,21.16
2018-09-14T12:11:42.562Z,20.99
2018-09-14T12:14:11.673Z,20.76
2018-09-14T12:16:40.472Z,20.62
2018-09-14T12:19:10.201Z,20.39
2018-09-14T12:21:40.153Z,20.19
2018-09-14T12:24:09.292Z,20.01
2018-09-14T12:26:38.318Z,19.86
2018-09-14T12:29:06.948Z,20.08
2018-09-14T12:31:35.529Z,20.29
2018-09-14T12:34:04.254Z,20.31
2018-09-14T12:36:32.896Z,20.22
2018-09-14T12:39:01.579Z,20.09
2018-09-14T12:41:30.172Z,19.90
2018-09-14T12:43:58.736Z,19.74
2018-09-14T12:46:27.313Z,19.67
2018-09-14T12:48:55.925Z,19.72
2018-09-14T12:51:25.290Z,19.69
2018-09-14T12:53:53.876Z,19.59
2018-09-14T12:56:22.553Z,19.47
2018-09-14T12:58:51.342Z,19.43
2018-09-14T13:01:19.962Z,19.36
2018-09-14T13:03:48.610Z,19.45
2018-09-14T13:06:17.090Z,19.69
2018-09-14T13:08:45.701Z,20.04
2018-09-14T13:11:14.522Z,20.42
2018-09-14T13:13:44.630Z,20.74
2018-09-14T13:16:13.383Z,20.75
2018-09-14T13:18:43.061Z,20.50
2018-09-14T13:21:11.851Z,20.49
2018-09-14T13:23:40.617Z,20.75
2018-09-14T13:26:09.345Z,20.97
2018-09-14T13:28:40.570Z,20.91
2018-09-14T13:31:09.283Z,20.74
2018-09-14T13:33:37.991Z,20.65
2018-09-14T13:36:06.732Z,20.53
2018-09-14T13:38:35.853Z,20.86
2018-09-14T13:41:05.928Z,21.27
2018-09-14T13:43:34.932Z,21.56
2018-09-14T13:46:05.150Z,21.95
2018-09-14T13:48:34.334Z,22.27
2018-09-14T13:51:06.739Z,22.43
2018-09-14T13:53:36.342Z,22.30
2018-09-14T13:56:06.741Z,22.00
2018-09-14T13:58:35.682Z,21.64
2018-09-14T14:01:05.336Z,21.33
2018-09-14T14:03:34.188Z,21.11
2018-09-14T14:06:05.387Z,20.95
2018-09-14T14:08:34.329Z,20.97
2018-09-14T14:11:03.887Z,20.86
2018-09-14T14:13:33.725Z,20.62
2018-09-14T14:16:04.850Z,20.50
2018-09-14T14:18:33.466Z,20.48
2018-09-14T14:21:03.117Z,20.76
2018-09-14T14:23:31.737Z,21.15
2018-09-14T14:26:01.668Z,21.48
2018-09-14T14:28:31.054Z,21.63
2018-09-14T14:30:59.795Z,21.36
2018-09-14T14:33:30.081Z,21.12
2018-09-14T14:35:59.804Z,20.90
2018-09-14T14:38:30.443Z,20.99
2018-09-14T14:40:59.987Z,21.36
2018-09-14T14:43:28.740Z,21.83
2018-09-14T14:45:58.770Z,22.22
2018-09-14T14:48:27.382Z,22.56
2018-09-14T14:50:55.974Z,22.63
2018-09-14T14:53:26.077Z,22.63
2018-09-14T14:55:55.085Z,22.57
2018-09-14T14:58:24.280Z,22.60
2018-09-14T15:00:54.016Z,22.54
2018-09-14T15:03:24.041Z,22.53
2018-09-14T15:05:52.807Z,22.45
2018-09-14T15:08:22.300Z,22.55
2018-09-14T15:10:54.224Z,22.33
2018-09-14T15:13:23.096Z,22.14
2018-09-14T15:15:52.404Z,21.90
2018-09-14T15:18:24.587Z,21.66
2018-09-14T15:20:53.609Z,21.41
2018-09-14T15:23:22.835Z,21.24
2018-09-14T15:25:51.628Z,21.16
2018-09-14T15:28:20.264Z,21.05
2018-09-14T15:30:48.807Z,21.04
2018-09-14T15:33:17.481Z,21.27
2018-09-14T15:35:46.125Z,21.49
2018-09-14T15:38:15.130Z,21.36
2018-09-14T15:40:45.959Z,21.23
2018-09-14T15:43:15.599Z,21.06
2018-09-14T15:45:44.460Z,20.94
2018-09-14T15:48:13.833Z,20.82
2018-09-14T15:50:42.476Z,20.73
2018-09-14T15:53:11.808Z,20.67
2018-09-14T15:55:40.442Z,20.55
2018-09-14T15:58:09.849Z,20.47
2018-09-14T16:00:38.635Z,20.45
2018-09-14T16:03:07.490Z,20.42
2018-09-14T16:05:36.166Z,20.40
2018-09-14T16:08:06.059Z,20.39
2018-09-14T16:10:34.810Z,20.33
2018-09-14T16:13:03.434Z,20.22
2018-09-14T16:15:33.359Z,20.17
2018-09-14T16:18:03.736Z,20.08
2018-09-14T16:20:33.158Z,20.02
2018-09-14T16:23:02.896Z,19.97
2018-09-14T16:25:35.831Z,19.92
2018-09-14T16:28:05.276Z,19.85
2018-09-14T16:30:35.667Z,19.80
2018-09-14T16:33:04.446Z,19.73
2018-09-14T16:35:34.757Z,19.68
2018-09-14T16:38:05.415Z,19.65
2018-09-14T16:40:39.171Z,19.60
2018-09-14T16:43:08.821Z,19.59
2018-09-14T16:45:37.912Z,19.55
2018-09-14T16:48:07.639Z,19.52
2018-09-14T16:50:36.243Z,19.46
2018-09-14T16:53:07.808Z,19.41
2018-09-14T16:55:36.828Z,19.34
2018-09-14T16:58:05.686Z,19.27
2018-09-14T17:00:34.532Z,19.22
2018-09-14T17:03:04.183Z,19.17
2018-09-14T17:05:33.695Z,19.12
2018-09-14T17:08:05.044Z,19.07
2018-09-14T17:10:37.556Z,19.02
2018-09-14T17:13:06.734Z,18.98
2018-09-14T17:15:35.429Z,18.93
2018-09-14T17:18:05.523Z,18.87
2018-09-14T17:20:34.476Z,18.82
2018-09-14T17:23:03.167Z,18.79
2018-09-14T17:25:31.847Z,18.74
2018-09-14T17:28:01.939Z,18.70
2018-09-14T17:30:30.941Z,18.66
2018-09-14T17:32:59.690Z,18.60
2018-09-14T17:35:29.128Z,18.56
2018-09-14T17:37:57.919Z,18.50
2018-09-14T17:40:27.628Z,18.45
2018-09-14T17:42:56.422Z,18.41
2018-09-14T17:45:26.579Z,18.34
2018-09-14T17:47:55.235Z,18.30
2018-09-14T17:50:24.304Z,18.29
2018-09-14T17:52:53.844Z,18.25
2018-09-14T17:55:22.961Z,18.20
2018-09-14T17:57:51.846Z,18.18
2018-09-14T18:00:21.022Z,18.15
2018-09-14T18:02:50.587Z,18.12
2018-09-14T18:05:20.086Z,18.01
2018-09-14T18:07:48.811Z,17.92
2018-09-14T18:10:17.391Z,17.83
2018-09-14T18:12:46.214Z,17.70
2018-09-14T18:15:15.819Z,17.60
2018-09-14T18:17:44.645Z,17.51
2018-09-14T18:20:13.891Z,17.44
2018-09-14T18:22:42.818Z,17.36
2018-09-14T18:25:11.686Z,17.28
2018-09-14T18:27:40.528Z,17.20
2018-09-14T18:30:09.924Z,17.12
2018-09-14T18:32:38.788Z,17.03
2018-09-14T18:35:08.277Z,16.96
2018-09-14T18:37:37.162Z,16.91
2018-09-14T18:40:06.537Z,16.84
2018-09-14T18:42:35.201Z,16.80
2018-09-14T18:45:04.858Z,16.73
2018-09-14T18:47:34.466Z,16.68
2018-09-14T18:50:04.061Z,16.63
2018-09-14T18:52:33.116Z,16.59
2018-09-14T18:55:02.229Z,16.54
2018-09-14T18:57:31.064Z,16.49
2018-09-14T18:59:59.929Z,16.45
2018-09-14T19:02:29.519Z,16.42
2018-09-14T19:04:58.579Z,16.34
2018-09-14T19:07:28.379Z,16.32
2018-09-14T19:09:57.116Z,16.27
2018-09-14T19:12:25.924Z,16.19
2018-09-14T19:14:54.810Z,16.19
2018-09-14T19:17:24.271Z,16.15
2018-09-14T19:19:53.929Z,16.13
2018-09-14T19:22:22.714Z,16.09
2018-09-14T19:24:51.580Z,16.09
2018-09-14T19:27:20.516Z,16.07
2018-09-14T19:29:50.086Z,16.04
2018-09-14T19:32:18.924Z,16.01
2018-09-14T19:34:47.729Z,15.96
2018-09-14T19:37:17.366Z,15.96
2018-09-14T19:39:46.920Z,15.94
2018-09-14T19:48:13.905Z,15.87
2018-09-14T19:50:42.686Z,15.84
2018-09-14T19:53:32.405Z,15.81
2018-09-14T19:56:25.804Z,15.79
2018-09-14T19:58:55.124Z,15.78
2018-09-14T20:01:23.940Z,15.73
2018-09-14T20:03:53.664Z,15.72
2018-09-14T20:06:22.653Z,15.71
2018-09-14T20:08:51.468Z,15.70
2018-09-14T20:11:20.268Z,15.70
2018-09-14T20:13:49.300Z,15.69
2018-09-14T20:16:19.744Z,15.67
2018-09-14T20:18:49.347Z,15.66
2018-09-14T20:21:18.933Z,15.66
2018-09-14T20:23:47.759Z,15.65
2018-09-14T20:26:16.574Z,15.67
2018-09-14T20:28:46.021Z,15.68
2018-09-14T20:31:15.429Z,15.65
2018-09-14T20:33:45.092Z,15.67
2018-09-14T20:36:15.334Z,15.66
2018-09-14T20:38:45.205Z,15.66
2018-09-14T20:41:14.051Z,15.62
2018-09-14T20:43:44.056Z,15.59
2018-09-14T20:46:12.912Z,15.59
2018-09-14T20:48:42.906Z,15.56
2018-09-14T20:51:11.720Z,15.54
2018-09-14T20:53:40.385Z,15.55
2018-09-14T20:56:09.829Z,15.53
2018-09-14T20:58:38.415Z,15.53
2018-09-14T21:01:07.757Z,15.52
2018-09-14T21:03:36.385Z,15.49
2018-09-14T21:06:05.103Z,15.51
2018-09-14T21:08:34.147Z,15.56
2018-09-14T21:11:03.153Z,15.61
2018-09-14T21:13:31.891Z,15.68
2018-09-14T21:16:00.895Z,15.75
2018-09-14T21:18:29.642Z,15.77
2018-09-14T21:20:58.404Z,15.81
2018-09-14T21:23:27.276Z,15.82
2018-09-14T21:25:56.076Z,15.79
2018-09-14T21:28:24.820Z,15.78
2018-09-14T21:30:53.838Z,15.79
2018-09-14T21:33:22.803Z,15.80
2018-09-14T21:35:52.642Z,15.77
2018-09-14T21:38:22.236Z,15.79
2018-09-14T21:40:50.931Z,15.80
2018-09-14T21:43:20.489Z,15.75
2018-09-14T21:45:49.158Z,15.71
2018-09-14T21:48:17.890Z,15.70
2018-09-14T21:51:37.496Z,15.69
2018-09-14T21:54:23.381Z,15.69
2018-09-14T21:56:53.034Z,15.73
2018-09-14T21:59:21.863Z,15.73
2018-09-14T22:01:50.573Z,15.76
2018-09-14T22:04:40.109Z,15.76
2018-09-14T22:10:23.666Z,15.80
2018-09-14T22:12:53.441Z,15.80
2018-09-14T22:15:22.088Z,15.86
2018-09-14T22:17:50.861Z,15.89
2018-09-14T22:20:19.643Z,15.93
2018-09-14T22:22:48.301Z,15.95
2018-09-14T22:25:17.194Z,15.96
2018-09-14T22:27:46.390Z,15.99
2018-09-14T22:30:15.438Z,16.01
2018-09-14T22:32:44.061Z,16.01
2018-09-14T22:35:12.845Z,15.93
2018-09-14T22:37:41.773Z,15.93
2018-09-14T22:40:11.637Z,15.93
2018-09-14T22:42:40.412Z,15.95
2018-09-14T22:45:09.116Z,15.93
2018-09-14T22:47:38.801Z,15.90
2018-09-14T22:50:07.985Z,15.87
2018-09-14T22:52:36.687Z,15.85
2018-09-14T22:55:06.175Z,15.81
2018-09-14T22:57:34.850Z,15.79
2018-09-14T23:00:04.045Z,15.75
2018-09-14T23:02:32.747Z,15.74
2018-09-14T23:05:02.250Z,15.79
2018-09-14T23:07:30.922Z,15.81
2018-09-14T23:09:59.777Z,15.81
2018-09-14T23:12:28.459Z,15.81
2018-09-14T23:14:57.172Z,15.82
2018-09-14T23:17:26.752Z,15.82
2018-09-14T23:19:55.458Z,15.79
2018-09-14T23:22:24.265Z,15.75
2018-09-14T23:24:52.871Z,15.70
2018-09-14T23:27:21.563Z,15.63
2018-09-14T23:29:50.351Z,15.58
2018-09-14T23:32:19.078Z,15.48
2018-09-14T23:34:47.680Z,15.41
2018-09-14T23:37:16.887Z,15.32
2018-09-14T23:39:46.399Z,15.27
2018-09-14T23:42:16.125Z,15.23
2018-09-14T23:44:44.790Z,15.20
2018-09-14T23:47:13.672Z,15.17
2018-09-14T23:49:42.656Z,15.15
2018-09-14T23:52:11.365Z,15.15
2018-09-14T23:54:40.048Z,15.22
2018-09-14T23:57:08.762Z,15.29
2018-09-14T23:59:37.484Z,15.33
